Marcum, Kentucky
Current Conditions -  °F | °C
As of 4:53 AM on Sunday 23 Nov 2014 (Local Time) from KLOZ Reporting Station
Few Clouds Few Clouds  
Wind Chill: 45°   Ceiling: Unl
Heat Index: 48°   Visibility: 10mi
Dew Point: 33°   Wind: 6mph
Humidity: 56%   Direction: 150°SSE
Pressure: 30.05"   Gusts: NA
Location:  37.1101°N, 83.7537°W
Report Text: KLOZ 230953Z AUTO 15005KT 10SM FEW055 09/01 A3005 RMK AO2 SLP175 T00890006
Loading
Personal Weather Stations






























Interactive Weather Map New forecast layout! Learn more

10-Day Weather Forecast

Advertisements
Track Severe Weather on mobile